DLH5TT EGBB-EDDF
Flight info
| Callsign | DLH5TT |
|---|---|
| Flight time | 1h 12m |
| Altitude | 39000 |
| Route | COWLY Q70 BIG UL9 KONAN DCT KOK UL607 SPI T180 NIVNU/N0396F230 T847 IMCOM IMCOM1D |
| Aircraft | CRJ9/M-SDFGIRWY/S |
Departure
| Time | 2026-04-14 15:14 |
|---|---|
| Airport | Birmingham Airport (EGBB) |
Arrival
| Time | 2026-04-14 16:26 |
|---|---|
| Airport | Frankfurt Main Airport (EDDF) |
| Time | Latitude | Longitude | Altitude | Speed | Heading |
|---|---|---|---|---|---|
| 2026-04-14 14:26 | 52.45477 | -1.73359 | 322 ft | 0 kts | 145° |
| 2026-04-14 15:04 | 52.45491 | -1.73374 | 322 ft | 4 kts | 146° |
| 2026-04-14 15:04 | 52.45513 | -1.73397 | 321 ft | 4 kts | 159° |
| 2026-04-14 15:05 | 52.45536 | -1.73405 | 321 ft | 4 kts | 189° |
| 2026-04-14 15:05 | 52.45557 | -1.73389 | 319 ft | 3 kts | 235° |
| 2026-04-14 15:05 | 52.45551 | -1.73403 | 319 ft | 4 kts | 236° |
| 2026-04-14 15:05 | 52.45536 | -1.73440 | 321 ft | 4 kts | 236° |
| 2026-04-14 15:06 | 52.45525 | -1.73466 | 322 ft | 0 kts | 236° |
| 2026-04-14 15:08 | 52.45509 | -1.73504 | 322 ft | 7 kts | 236° |
| 2026-04-14 15:08 | 52.45480 | -1.73574 | 322 ft | 8 kts | 236° |
| 2026-04-14 15:08 | 52.45456 | -1.73632 | 322 ft | 10 kts | 236° |
| 2026-04-14 15:08 | 52.45416 | -1.73728 | 321 ft | 11 kts | 236° |
| 2026-04-14 15:09 | 52.45370 | -1.73840 | 321 ft | 13 kts | 236° |
| 2026-04-14 15:09 | 52.45319 | -1.73965 | 322 ft | 14 kts | 237° |
| 2026-04-14 15:09 | 52.45332 | -1.74108 | 321 ft | 14 kts | 297° |
| 2026-04-14 15:09 | 52.45379 | -1.74260 | 321 ft | 16 kts | 297° |
| 2026-04-14 15:10 | 52.45431 | -1.74429 | 322 ft | 17 kts | 296° |
| 2026-04-14 15:10 | 52.45497 | -1.74598 | 322 ft | 18 kts | 322° |
| 2026-04-14 15:10 | 52.45610 | -1.74723 | 317 ft | 22 kts | 326° |
| 2026-04-14 15:10 | 52.45750 | -1.74879 | 309 ft | 27 kts | 326° |
| 2026-04-14 15:11 | 52.45908 | -1.75055 | 308 ft | 24 kts | 326° |
| 2026-04-14 15:11 | 52.46047 | -1.75210 | 305 ft | 25 kts | 326° |
| 2026-04-14 15:11 | 52.46198 | -1.75377 | 305 ft | 27 kts | 326° |
| 2026-04-14 15:11 | 52.46358 | -1.75555 | 300 ft | 28 kts | 326° |
| 2026-04-14 15:12 | 52.46525 | -1.75739 | 306 ft | 29 kts | 326° |
| 2026-04-14 15:12 | 52.46631 | -1.75871 | 308 ft | 11 kts | 294° |
| 2026-04-14 15:12 | 52.46606 | -1.75988 | 305 ft | 13 kts | 236° |
| 2026-04-14 15:12 | 52.46568 | -1.76080 | 307 ft | 5 kts | 232° |
| 2026-04-14 15:13 | 52.46556 | -1.76089 | 305 ft | 1 kts | 180° |
| 2026-04-14 15:13 | 52.46534 | -1.76075 | 307 ft | 5 kts | 149° |
| 2026-04-14 15:13 | 52.46509 | -1.76049 | 308 ft | 0 kts | 146° |
| 2026-04-14 15:13 | 52.46503 | -1.76042 | 307 ft | 9 kts | 146° |
| 2026-04-14 15:14 | 52.46255 | -1.75768 | 309 ft | 79 kts | 146° |
| 2026-04-14 15:14 | 52.45625 | -1.75068 | 323 ft | 136 kts | 146° |
| 2026-04-14 15:14 | 52.44738 | -1.74072 | 620 ft | 164 kts | 145° |
| 2026-04-14 15:14 | 52.43814 | -1.73011 | 1492 ft | 158 kts | 147° |
| 2026-04-14 15:15 | 52.42935 | -1.71981 | 2377 ft | 155 kts | 149° |
| 2026-04-14 15:15 | 52.41987 | -1.70926 | 2912 ft | 174 kts | 151° |
| 2026-04-14 15:15 | 52.40893 | -1.69929 | 3537 ft | 186 kts | 165° |
| 2026-04-14 15:15 | 52.39602 | -1.69314 | 4209 ft | 200 kts | 170° |
| 2026-04-14 15:16 | 52.38211 | -1.68767 | 4950 ft | 211 kts | 168° |
| 2026-04-14 15:16 | 52.36765 | -1.67881 | 5491 ft | 232 kts | 161° |
| 2026-04-14 15:16 | 52.35257 | -1.66698 | 6078 ft | 249 kts | 157° |
| 2026-04-14 15:16 | 52.33722 | -1.65206 | 6731 ft | 261 kts | 152° |
| 2026-04-14 15:17 | 52.32196 | -1.63560 | 7545 ft | 264 kts | 150° |
| 2026-04-14 15:17 | 52.30652 | -1.61879 | 8352 ft | 268 kts | 150° |
| 2026-04-14 15:17 | 52.29090 | -1.60187 | 9161 ft | 271 kts | 150° |
| 2026-04-14 15:17 | 52.27502 | -1.58498 | 9943 ft | 274 kts | 151° |
| 2026-04-14 15:18 | 52.25857 | -1.56789 | 10317 ft | 290 kts | 152° |
| 2026-04-14 15:18 | 52.24034 | -1.55162 | 10585 ft | 307 kts | 157° |
| 2026-04-14 15:18 | 52.22053 | -1.53633 | 10912 ft | 322 kts | 158° |
| 2026-04-14 15:18 | 52.20007 | -1.52073 | 11380 ft | 331 kts | 158° |
| 2026-04-14 15:19 | 52.17906 | -1.50456 | 11970 ft | 337 kts | 158° |
| 2026-04-14 15:19 | 52.15772 | -1.48811 | 12512 ft | 342 kts | 158° |
| 2026-04-14 15:19 | 52.13576 | -1.47089 | 13041 ft | 349 kts | 157° |
| 2026-04-14 15:19 | 52.11398 | -1.45397 | 13784 ft | 355 kts | 158° |
| 2026-04-14 15:20 | 52.09147 | -1.43640 | 14546 ft | 361 kts | 157° |
| 2026-04-14 15:20 | 52.06870 | -1.41852 | 15333 ft | 366 kts | 157° |
| 2026-04-14 15:20 | 52.04566 | -1.40039 | 16084 ft | 370 kts | 157° |
| 2026-04-14 15:20 | 52.02229 | -1.38203 | 16798 ft | 376 kts | 157° |
| 2026-04-14 15:21 | 51.99861 | -1.36339 | 17558 ft | 380 kts | 156° |
| 2026-04-14 15:21 | 51.97462 | -1.34457 | 18272 ft | 385 kts | 157° |
| 2026-04-14 15:21 | 51.95031 | -1.32550 | 18885 ft | 390 kts | 157° |
| 2026-04-14 15:21 | 51.92570 | -1.30624 | 19446 ft | 395 kts | 157° |
| 2026-04-14 15:22 | 51.90078 | -1.28673 | 20012 ft | 400 kts | 157° |
| 2026-04-14 15:22 | 51.87558 | -1.26708 | 20569 ft | 405 kts | 157° |
| 2026-04-14 15:22 | 51.85002 | -1.24720 | 21114 ft | 410 kts | 157° |
| 2026-04-14 15:22 | 51.82419 | -1.22712 | 21621 ft | 414 kts | 157° |
| 2026-04-14 15:23 | 51.79803 | -1.20680 | 22117 ft | 419 kts | 157° |
| 2026-04-14 15:23 | 51.77189 | -1.18650 | 22574 ft | 425 kts | 157° |
| 2026-04-14 15:23 | 51.74513 | -1.16554 | 23062 ft | 429 kts | 156° |
| 2026-04-14 15:23 | 51.71913 | -1.14097 | 23536 ft | 436 kts | 149° |
| 2026-04-14 15:24 | 51.69943 | -1.11958 | 23843 ft | 439 kts | 149° |
| 2026-04-14 15:24 | 51.67422 | -1.09132 | 24237 ft | 444 kts | 144° |
| 2026-04-14 15:24 | 51.65078 | -1.05843 | 24619 ft | 450 kts | 135° |
| 2026-04-14 15:24 | 51.63308 | -1.01674 | 24978 ft | 455 kts | 114° |
| 2026-04-14 15:25 | 51.62421 | -0.96768 | 25361 ft | 457 kts | 99° |
| 2026-04-14 15:25 | 51.61814 | -0.91731 | 25761 ft | 460 kts | 99° |
| 2026-04-14 15:25 | 51.61084 | -0.86688 | 26128 ft | 464 kts | 104° |
| 2026-04-14 15:25 | 51.60115 | -0.81701 | 26488 ft | 468 kts | 107° |
| 2026-04-14 15:26 | 51.59045 | -0.76809 | 26836 ft | 471 kts | 108° |
| 2026-04-14 15:26 | 51.57945 | -0.71821 | 27185 ft | 473 kts | 108° |
| 2026-04-14 15:26 | 51.56875 | -0.66802 | 27512 ft | 475 kts | 107° |
| 2026-04-14 15:26 | 51.55842 | -0.61747 | 27854 ft | 478 kts | 106° |
| 2026-04-14 15:27 | 51.54792 | -0.56669 | 28163 ft | 481 kts | 106° |
| 2026-04-14 15:27 | 51.53736 | -0.51552 | 28468 ft | 483 kts | 106° |
| 2026-04-14 15:27 | 51.52668 | -0.46418 | 28760 ft | 486 kts | 106° |
| 2026-04-14 15:27 | 51.51597 | -0.41260 | 29044 ft | 488 kts | 106° |
| 2026-04-14 15:28 | 51.50516 | -0.36075 | 29325 ft | 491 kts | 106° |
| 2026-04-14 15:28 | 51.49426 | -0.30868 | 29612 ft | 493 kts | 106° |
| 2026-04-14 15:28 | 51.48331 | -0.25644 | 29886 ft | 496 kts | 106° |
| 2026-04-14 15:28 | 51.47228 | -0.20386 | 30159 ft | 498 kts | 106° |
| 2026-04-14 15:29 | 51.46115 | -0.15115 | 30400 ft | 500 kts | 106° |
| 2026-04-14 15:29 | 51.44997 | -0.09818 | 30605 ft | 502 kts | 106° |
| 2026-04-14 15:29 | 51.43870 | -0.04494 | 30823 ft | 504 kts | 107° |
| 2026-04-14 15:29 | 51.42735 | 0.00833 | 31061 ft | 506 kts | 106° |
| 2026-04-14 15:30 | 51.41615 | 0.06112 | 31254 ft | 508 kts | 106° |
| 2026-04-14 15:30 | 51.40470 | 0.11479 | 31449 ft | 510 kts | 106° |
| 2026-04-14 15:30 | 51.39318 | 0.16851 | 31641 ft | 511 kts | 106° |
| 2026-04-14 15:30 | 51.38158 | 0.22242 | 31874 ft | 512 kts | 106° |
| 2026-04-14 15:31 | 51.37002 | 0.27632 | 32140 ft | 512 kts | 106° |
| 2026-04-14 15:31 | 51.35841 | 0.33005 | 32405 ft | 511 kts | 107° |
| 2026-04-14 15:31 | 51.34676 | 0.38386 | 32630 ft | 511 kts | 107° |
| 2026-04-14 15:31 | 51.33509 | 0.43771 | 32887 ft | 511 kts | 107° |
| 2026-04-14 15:32 | 51.31171 | 0.54499 | 33241 ft | 510 kts | 106° |
| 2026-04-14 15:32 | 51.30015 | 0.59820 | 33479 ft | 510 kts | 106° |
| 2026-04-14 15:32 | 51.28839 | 0.65173 | 33711 ft | 510 kts | 106° |
| 2026-04-14 15:33 | 51.27662 | 0.70523 | 33927 ft | 510 kts | 106° |
| 2026-04-14 15:33 | 51.26481 | 0.75873 | 34120 ft | 511 kts | 106° |
| 2026-04-14 15:33 | 51.25302 | 0.81212 | 34351 ft | 510 kts | 106° |
| 2026-04-14 15:33 | 51.24115 | 0.86568 | 34542 ft | 510 kts | 106° |
| 2026-04-14 15:34 | 51.22928 | 0.91908 | 34773 ft | 510 kts | 106° |
| 2026-04-14 15:34 | 51.21744 | 0.97235 | 35037 ft | 509 kts | 106° |
| 2026-04-14 15:34 | 51.20603 | 1.02571 | 35280 ft | 506 kts | 102° |
| 2026-04-14 15:34 | 51.19780 | 1.08002 | 35474 ft | 502 kts | 96° |
| 2026-04-14 15:35 | 51.19170 | 1.13485 | 35644 ft | 501 kts | 95° |
| 2026-04-14 15:35 | 51.18571 | 1.18962 | 35818 ft | 502 kts | 96° |
| 2026-04-14 15:35 | 51.17895 | 1.24358 | 35994 ft | 503 kts | 97° |
| 2026-04-14 15:35 | 51.17158 | 1.29804 | 36163 ft | 503 kts | 97° |
| 2026-04-14 15:36 | 51.16451 | 1.35256 | 36327 ft | 501 kts | 95° |
| 2026-04-14 15:36 | 51.15969 | 1.40733 | 36509 ft | 498 kts | 90° |
| 2026-04-14 15:36 | 51.15696 | 1.46199 | 36779 ft | 493 kts | 87° |
| 2026-04-14 15:36 | 51.15510 | 1.51640 | 37000 ft | 491 kts | 86° |
| 2026-04-14 15:37 | 51.15068 | 1.62554 | 37140 ft | 496 kts | 88° |
| 2026-04-14 15:37 | 51.14524 | 1.73538 | 37168 ft | 496 kts | 88° |
| 2026-04-14 15:38 | 51.13975 | 1.84431 | 37173 ft | 497 kts | 88° |
| 2026-04-14 15:38 | 51.13404 | 1.95405 | 37177 ft | 497 kts | 88° |
| 2026-04-14 15:39 | 51.12818 | 2.06406 | 37165 ft | 498 kts | 88° |
| 2026-04-14 15:39 | 51.12225 | 2.17395 | 37167 ft | 498 kts | 88° |
| 2026-04-14 15:40 | 51.11644 | 2.28377 | 37172 ft | 498 kts | 88° |
| 2026-04-14 15:40 | 51.11042 | 2.39284 | 37198 ft | 498 kts | 88° |
| 2026-04-14 15:41 | 51.10422 | 2.50291 | 37187 ft | 499 kts | 88° |
| 2026-04-14 15:41 | 51.09793 | 2.61301 | 37185 ft | 499 kts | 89° |
| 2026-04-14 15:42 | 51.08443 | 2.72233 | 37187 ft | 509 kts | 101° |
| 2026-04-14 15:42 | 51.06289 | 2.82989 | 37185 ft | 510 kts | 102° |
| 2026-04-14 15:43 | 51.04278 | 2.93790 | 37191 ft | 509 kts | 100° |
| 2026-04-14 15:43 | 51.02316 | 3.04519 | 37180 ft | 509 kts | 101° |
| 2026-04-14 15:44 | 51.00322 | 3.15319 | 37218 ft | 509 kts | 101° |
| 2026-04-14 15:44 | 50.98318 | 3.26132 | 37209 ft | 510 kts | 101° |
| 2026-04-14 15:45 | 50.96307 | 3.36930 | 37192 ft | 508 kts | 101° |
| 2026-04-14 15:45 | 50.94290 | 3.47655 | 37186 ft | 506 kts | 101° |
| 2026-04-14 15:46 | 50.92273 | 3.58341 | 37187 ft | 504 kts | 101° |
| 2026-04-14 15:46 | 50.90249 | 3.68965 | 37186 ft | 503 kts | 102° |
| 2026-04-14 15:47 | 50.88223 | 3.79487 | 37208 ft | 502 kts | 102° |
| 2026-04-14 15:47 | 50.86159 | 3.90085 | 37201 ft | 503 kts | 102° |
| 2026-04-14 15:48 | 50.84095 | 4.00662 | 37201 ft | 503 kts | 102° |
| 2026-04-14 15:48 | 50.82026 | 4.11234 | 37206 ft | 503 kts | 102° |
| 2026-04-14 15:49 | 50.79953 | 4.21733 | 37195 ft | 503 kts | 102° |
| 2026-04-14 15:49 | 50.77866 | 4.32287 | 37209 ft | 502 kts | 102° |
| 2026-04-14 15:50 | 50.75765 | 4.42826 | 37209 ft | 502 kts | 102° |
| 2026-04-14 15:50 | 50.73657 | 4.53340 | 37210 ft | 502 kts | 102° |
| 2026-04-14 15:51 | 50.71571 | 4.63858 | 37209 ft | 502 kts | 102° |
| 2026-04-14 15:51 | 50.69888 | 4.72616 | 37220 ft | 501 kts | 102° |
| 2026-04-14 15:52 | 50.67543 | 4.84842 | 37209 ft | 501 kts | 103° |
| 2026-04-14 15:52 | 50.65817 | 4.93619 | 37208 ft | 500 kts | 103° |
| 2026-04-14 15:53 | 50.63694 | 5.04064 | 37210 ft | 500 kts | 104° |
| 2026-04-14 15:53 | 50.61555 | 5.14493 | 37232 ft | 500 kts | 104° |
| 2026-04-14 15:54 | 50.58330 | 5.30018 | 37210 ft | 499 kts | 105° |
| 2026-04-14 15:55 | 50.56168 | 5.40378 | 37201 ft | 498 kts | 105° |
| 2026-04-14 15:55 | 50.53999 | 5.50717 | 37206 ft | 497 kts | 105° |
| 2026-04-14 15:56 | 50.51826 | 5.61038 | 37210 ft | 497 kts | 105° |
| 2026-04-14 15:56 | 50.49752 | 5.71383 | 37200 ft | 495 kts | 103° |
| 2026-04-14 15:57 | 50.47836 | 5.81740 | 37204 ft | 493 kts | 103° |
| 2026-04-14 15:57 | 50.45902 | 5.91967 | 37205 ft | 491 kts | 103° |
| 2026-04-14 15:58 | 50.43966 | 6.02223 | 37178 ft | 490 kts | 103° |
| 2026-04-14 15:58 | 50.42992 | 6.07359 | 36959 ft | 494 kts | 103° |
| 2026-04-14 15:58 | 50.41998 | 6.12557 | 36643 ft | 498 kts | 103° |
| 2026-04-14 15:58 | 50.41001 | 6.17773 | 36340 ft | 498 kts | 103° |
| 2026-04-14 15:59 | 50.40006 | 6.22971 | 36048 ft | 499 kts | 103° |
| 2026-04-14 15:59 | 50.39005 | 6.28176 | 35750 ft | 495 kts | 103° |
| 2026-04-14 15:59 | 50.38016 | 6.33318 | 35456 ft | 491 kts | 103° |
| 2026-04-14 15:59 | 50.37031 | 6.38412 | 35165 ft | 487 kts | 101° |
| 2026-04-14 16:00 | 50.36327 | 6.43569 | 34877 ft | 480 kts | 94° |
| 2026-04-14 16:00 | 50.35880 | 6.48728 | 34582 ft | 476 kts | 91° |
| 2026-04-14 16:00 | 50.35583 | 6.53824 | 34261 ft | 473 kts | 89° |
| 2026-04-14 16:00 | 50.35338 | 6.58948 | 33886 ft | 472 kts | 89° |
| 2026-04-14 16:01 | 50.35070 | 6.64075 | 33463 ft | 473 kts | 90° |
| 2026-04-14 16:01 | 50.34749 | 6.69211 | 33011 ft | 474 kts | 90° |
| 2026-04-14 16:01 | 50.34423 | 6.74346 | 32573 ft | 474 kts | 90° |
| 2026-04-14 16:01 | 50.34089 | 6.79500 | 32076 ft | 474 kts | 91° |
| 2026-04-14 16:02 | 50.33456 | 6.84585 | 31573 ft | 480 kts | 101° |
| 2026-04-14 16:02 | 50.32445 | 6.89577 | 31039 ft | 480 kts | 104° |
| 2026-04-14 16:02 | 50.31297 | 6.94454 | 30506 ft | 477 kts | 109° |
| 2026-04-14 16:02 | 50.29943 | 6.99162 | 29880 ft | 470 kts | 112° |
| 2026-04-14 16:03 | 50.28524 | 7.03699 | 29113 ft | 460 kts | 114° |
| 2026-04-14 16:03 | 50.27097 | 7.08126 | 28378 ft | 452 kts | 114° |
| 2026-04-14 16:03 | 50.25745 | 7.12450 | 27662 ft | 444 kts | 112° |
| 2026-04-14 16:03 | 50.24450 | 7.16797 | 26957 ft | 437 kts | 112° |
| 2026-04-14 16:04 | 50.23174 | 7.21066 | 26272 ft | 431 kts | 112° |
| 2026-04-14 16:04 | 50.21907 | 7.25274 | 25602 ft | 425 kts | 113° |
| 2026-04-14 16:04 | 50.20654 | 7.29420 | 24948 ft | 420 kts | 113° |
| 2026-04-14 16:04 | 50.19424 | 7.33526 | 24308 ft | 414 kts | 111° |
| 2026-04-14 16:05 | 50.18373 | 7.37691 | 23699 ft | 409 kts | 108° |
| 2026-04-14 16:05 | 50.17454 | 7.41864 | 23031 ft | 405 kts | 107° |
| 2026-04-14 16:05 | 50.16544 | 7.46002 | 22405 ft | 402 kts | 108° |
| 2026-04-14 16:05 | 50.15590 | 7.50083 | 21769 ft | 399 kts | 109° |
| 2026-04-14 16:06 | 50.14634 | 7.54070 | 21149 ft | 395 kts | 109° |
| 2026-04-14 16:06 | 50.13680 | 7.58066 | 20491 ft | 392 kts | 109° |
| 2026-04-14 16:06 | 50.12725 | 7.62032 | 19831 ft | 391 kts | 109° |
| 2026-04-14 16:06 | 50.11760 | 7.66042 | 19177 ft | 398 kts | 109° |
| 2026-04-14 16:07 | 50.10809 | 7.70148 | 18537 ft | 404 kts | 108° |
| 2026-04-14 16:07 | 50.09925 | 7.74318 | 17846 ft | 406 kts | 106° |
| 2026-04-14 16:07 | 50.09127 | 7.78495 | 17468 ft | 398 kts | 105° |
| 2026-04-14 16:07 | 50.08368 | 7.82576 | 17307 ft | 386 kts | 102° |
| 2026-04-14 16:08 | 50.08257 | 7.86659 | 17228 ft | 376 kts | 80° |
| 2026-04-14 16:08 | 50.08840 | 7.90629 | 17047 ft | 378 kts | 71° |
| 2026-04-14 16:08 | 50.09742 | 7.94492 | 16827 ft | 380 kts | 66° |
| 2026-04-14 16:08 | 50.10754 | 7.98272 | 16484 ft | 386 kts | 66° |
| 2026-04-14 16:09 | 50.11807 | 8.02159 | 16112 ft | 392 kts | 66° |
| 2026-04-14 16:09 | 50.12814 | 8.06100 | 15693 ft | 390 kts | 68° |
| 2026-04-14 16:09 | 50.13770 | 8.10046 | 15276 ft | 387 kts | 68° |
| 2026-04-14 16:09 | 50.14713 | 8.13936 | 14799 ft | 379 kts | 68° |
| 2026-04-14 16:10 | 50.15631 | 8.17717 | 14320 ft | 366 kts | 68° |
| 2026-04-14 16:10 | 50.16512 | 8.21369 | 13812 ft | 351 kts | 68° |
| 2026-04-14 16:10 | 50.17357 | 8.24860 | 13266 ft | 338 kts | 68° |
| 2026-04-14 16:10 | 50.18170 | 8.28228 | 12727 ft | 325 kts | 69° |
| 2026-04-14 16:11 | 50.18899 | 8.31497 | 12175 ft | 314 kts | 78° |
| 2026-04-14 16:11 | 50.18823 | 8.34820 | 11631 ft | 305 kts | 109° |
| 2026-04-14 16:11 | 50.17789 | 8.37557 | 11145 ft | 293 kts | 133° |
| 2026-04-14 16:11 | 50.16400 | 8.39828 | 10685 ft | 286 kts | 138° |
| 2026-04-14 16:12 | 50.14937 | 8.41875 | 10214 ft | 279 kts | 143° |
| 2026-04-14 16:12 | 50.13249 | 8.43178 | 9700 ft | 269 kts | 173° |
| 2026-04-14 16:12 | 50.11457 | 8.42802 | 9271 ft | 260 kts | 208° |
| 2026-04-14 16:12 | 50.10176 | 8.40925 | 8849 ft | 254 kts | 243° |
| 2026-04-14 16:13 | 50.09574 | 8.38365 | 8401 ft | 250 kts | 255° |
| 2026-04-14 16:13 | 50.09100 | 8.35764 | 7983 ft | 250 kts | 256° |
| 2026-04-14 16:13 | 50.08610 | 8.33158 | 7515 ft | 251 kts | 254° |
| 2026-04-14 16:13 | 50.08041 | 8.30590 | 7038 ft | 250 kts | 251° |
| 2026-04-14 16:14 | 50.07422 | 8.28091 | 6673 ft | 245 kts | 250° |
| 2026-04-14 16:14 | 50.06806 | 8.25639 | 6285 ft | 241 kts | 251° |
| 2026-04-14 16:14 | 50.06225 | 8.23254 | 5891 ft | 237 kts | 251° |
| 2026-04-14 16:14 | 50.05656 | 8.20845 | 5512 ft | 232 kts | 252° |
| 2026-04-14 16:15 | 50.05091 | 8.18532 | 5211 ft | 224 kts | 250° |
| 2026-04-14 16:15 | 50.04537 | 8.16298 | 5078 ft | 224 kts | 251° |
| 2026-04-14 16:15 | 50.03983 | 8.14041 | 5035 ft | 228 kts | 251° |
| 2026-04-14 16:15 | 50.03414 | 8.11699 | 5013 ft | 229 kts | 251° |
| 2026-04-14 16:16 | 50.02862 | 8.09429 | 5004 ft | 225 kts | 251° |
| 2026-04-14 16:16 | 50.02306 | 8.07166 | 4997 ft | 222 kts | 251° |
| 2026-04-14 16:16 | 50.01759 | 8.04941 | 4990 ft | 218 kts | 251° |
| 2026-04-14 16:16 | 50.01225 | 8.02749 | 4990 ft | 216 kts | 251° |
| 2026-04-14 16:17 | 50.00689 | 8.00586 | 4994 ft | 213 kts | 251° |
| 2026-04-14 16:17 | 50.00150 | 7.98423 | 4992 ft | 216 kts | 251° |
| 2026-04-14 16:17 | 49.99614 | 7.96260 | 5000 ft | 218 kts | 250° |
| 2026-04-14 16:17 | 49.98806 | 7.94237 | 4971 ft | 223 kts | 219° |
| 2026-04-14 16:18 | 49.97374 | 7.93450 | 4976 ft | 222 kts | 176° |
| 2026-04-14 16:18 | 49.95902 | 7.93974 | 5008 ft | 220 kts | 153° |
| 2026-04-14 16:18 | 49.94668 | 7.95385 | 5027 ft | 217 kts | 130° |
| 2026-04-14 16:18 | 49.94006 | 7.97359 | 5053 ft | 207 kts | 102° |
| 2026-04-14 16:19 | 49.93608 | 7.99511 | 5050 ft | 207 kts | 103° |
| 2026-04-14 16:19 | 49.93247 | 8.01665 | 5028 ft | 205 kts | 92° |
| 2026-04-14 16:19 | 49.93429 | 8.03771 | 5061 ft | 193 kts | 74° |
| 2026-04-14 16:19 | 49.93739 | 8.05753 | 5083 ft | 183 kts | 73° |
| 2026-04-14 16:20 | 49.94061 | 8.07672 | 5073 ft | 185 kts | 72° |
| 2026-04-14 16:20 | 49.94401 | 8.09611 | 5049 ft | 187 kts | 72° |
| 2026-04-14 16:20 | 49.94750 | 8.11541 | 5036 ft | 186 kts | 71° |
| 2026-04-14 16:20 | 49.95120 | 8.13448 | 5026 ft | 183 kts | 70° |
| 2026-04-14 16:21 | 49.95515 | 8.15311 | 5007 ft | 182 kts | 69° |
| 2026-04-14 16:21 | 49.95938 | 8.17211 | 5003 ft | 189 kts | 68° |
| 2026-04-14 16:21 | 49.96388 | 8.19200 | 4699 ft | 207 kts | 68° |
| 2026-04-14 16:21 | 49.96910 | 8.21396 | 4320 ft | 217 kts | 67° |
| 2026-04-14 16:22 | 49.97408 | 8.23473 | 4308 ft | 196 kts | 67° |
| 2026-04-14 16:22 | 49.97884 | 8.25444 | 3840 ft | 195 kts | 67° |
| 2026-04-14 16:22 | 49.98353 | 8.27390 | 3495 ft | 186 kts | 67° |
| 2026-04-14 16:22 | 49.98793 | 8.29215 | 3300 ft | 176 kts | 68° |
| 2026-04-14 16:23 | 49.99213 | 8.30965 | 3062 ft | 171 kts | 67° |
| 2026-04-14 16:23 | 49.99638 | 8.32733 | 2814 ft | 181 kts | 67° |
| 2026-04-14 16:23 | 50.00079 | 8.34583 | 2539 ft | 180 kts | 67° |
| 2026-04-14 16:23 | 50.00498 | 8.36343 | 2261 ft | 168 kts | 67° |
| 2026-04-14 16:24 | 50.00900 | 8.38010 | 2005 ft | 160 kts | 68° |
| 2026-04-14 16:24 | 50.01277 | 8.39579 | 1804 ft | 154 kts | 68° |
| 2026-04-14 16:24 | 50.01641 | 8.41118 | 1583 ft | 149 kts | 68° |
| 2026-04-14 16:24 | 50.01994 | 8.42577 | 1370 ft | 140 kts | 67° |
| 2026-04-14 16:25 | 50.02333 | 8.43970 | 1132 ft | 134 kts | 67° |
| 2026-04-14 16:25 | 50.02646 | 8.45293 | 957 ft | 130 kts | 68° |
| 2026-04-14 16:25 | 50.02972 | 8.46657 | 809 ft | 136 kts | 68° |
| 2026-04-14 16:25 | 50.03295 | 8.48021 | 591 ft | 131 kts | 69° |
| 2026-04-14 16:26 | 50.03611 | 8.49338 | 415 ft | 130 kts | 68° |
| 2026-04-14 16:26 | 50.03924 | 8.50620 | 322 ft | 115 kts | 70° |
| 2026-04-14 16:26 | 50.04153 | 8.51583 | 332 ft | 78 kts | 69° |
| 2026-04-14 16:26 | 50.04237 | 8.52092 | 338 ft | 29 kts | 91° |
| 2026-04-14 16:27 | 50.04218 | 8.52319 | 339 ft | 22 kts | 99° |
| 2026-04-14 16:27 | 50.04190 | 8.52568 | 346 ft | 20 kts | 93° |
| 2026-04-14 16:27 | 50.04235 | 8.52821 | 348 ft | 28 kts | 70° |
| 2026-04-14 16:27 | 50.04296 | 8.53076 | 355 ft | 20 kts | 69° |
| 2026-04-14 16:28 | 50.04352 | 8.53312 | 359 ft | 27 kts | 70° |
| 2026-04-14 16:28 | 50.04399 | 8.53587 | 366 ft | 23 kts | 84° |
| 2026-04-14 16:28 | 50.04416 | 8.53836 | 359 ft | 23 kts | 84° |
| 2026-04-14 16:28 | 50.04432 | 8.54077 | 364 ft | 22 kts | 84° |
| 2026-04-14 16:29 | 50.04451 | 8.54358 | 361 ft | 31 kts | 84° |
| 2026-04-14 16:29 | 50.04403 | 8.54659 | 366 ft | 26 kts | 127° |
| 2026-04-14 16:29 | 50.04272 | 8.54795 | 364 ft | 19 kts | 159° |
| 2026-04-14 16:29 | 50.04187 | 8.54842 | 362 ft | 5 kts | 160° |
| 2026-04-14 16:30 | 50.04128 | 8.54876 | 361 ft | 6 kts | 159° |
| 2026-04-14 16:30 | 50.04085 | 8.54901 | 360 ft | 7 kts | 159° |
| 2026-04-14 16:30 | 50.04075 | 8.54907 | 362 ft | 0 kts | 159° |
| 2026-04-14 16:31 | 50.04074 | 8.54908 | 362 ft | 0 kts | 159° |
| 2026-04-14 16:32 | 50.04060 | 8.54916 | 366 ft | 7 kts | 159° |
| 2026-04-14 16:33 | 50.04012 | 8.54983 | 365 ft | 10 kts | 88° |
| 2026-04-14 16:33 | 50.04045 | 8.55128 | 363 ft | 19 kts | 69° |
| 2026-04-14 16:33 | 50.04097 | 8.55346 | 364 ft | 20 kts | 69° |
| 2026-04-14 16:33 | 50.04147 | 8.55555 | 364 ft | 21 kts | 70° |
| 2026-04-14 16:34 | 50.04202 | 8.55784 | 365 ft | 25 kts | 70° |
| 2026-04-14 16:34 | 50.04267 | 8.56055 | 364 ft | 29 kts | 69° |
| 2026-04-14 16:34 | 50.04329 | 8.56317 | 365 ft | 27 kts | 70° |
| 2026-04-14 16:34 | 50.04386 | 8.56552 | 366 ft | 15 kts | 69° |
| 2026-04-14 16:35 | 50.04426 | 8.56723 | 359 ft | 19 kts | 69° |
| 2026-04-14 16:35 | 50.04479 | 8.56943 | 363 ft | 24 kts | 70° |
| 2026-04-14 16:35 | 50.04541 | 8.57204 | 365 ft | 28 kts | 69° |
| 2026-04-14 16:35 | 50.04601 | 8.57455 | 365 ft | 16 kts | 69° |
| 2026-04-14 16:36 | 50.04645 | 8.57640 | 366 ft | 17 kts | 69° |
| 2026-04-14 16:36 | 50.04684 | 8.57799 | 361 ft | 8 kts | 70° |
| 2026-04-14 16:36 | 50.04685 | 8.57803 | 361 ft | 0 kts | 70° |
| 2026-04-14 16:37 | 50.04687 | 8.57814 | 366 ft | 4 kts | 70° |
| 2026-04-14 16:37 | 50.04702 | 8.57879 | 366 ft | 9 kts | 70° |
| 2026-04-14 16:37 | 50.04682 | 8.57972 | 360 ft | 11 kts | 149° |
| 2026-04-14 16:38 | 50.04597 | 8.58024 | 366 ft | 13 kts | 159° |
| 2026-04-14 16:38 | 50.04560 | 8.58096 | 363 ft | 5 kts | 83° |
| 2026-04-14 16:38 | 50.04578 | 8.58166 | 364 ft | 10 kts | 68° |
| 2026-04-14 16:38 | 50.04610 | 8.58302 | 368 ft | 16 kts | 70° |
| 2026-04-14 16:39 | 50.04657 | 8.58499 | 365 ft | 22 kts | 70° |
| 2026-04-14 16:39 | 50.04715 | 8.58731 | 361 ft | 22 kts | 65° |
| 2026-04-14 16:39 | 50.04775 | 8.58969 | 366 ft | 23 kts | 70° |
| 2026-04-14 16:39 | 50.04817 | 8.59143 | 366 ft | 15 kts | 69° |
| 2026-04-14 16:40 | 50.04841 | 8.59246 | 361 ft | 4 kts | 70° |
| 2026-04-14 16:40 | 50.04857 | 8.59295 | 361 ft | 4 kts | 29° |
| 2026-04-14 16:40 | 50.04863 | 8.59295 | 365 ft | 1 kts | 342° |
| 2026-04-14 16:40 | 50.04894 | 8.59276 | 367 ft | 8 kts | 340° |
| 2026-04-14 16:41 | 50.04927 | 8.59258 | 362 ft | 1 kts | 339° |
| 2026-04-14 16:41 | 50.04932 | 8.59255 | 363 ft | 0 kts | 339° |